createdAt,value
2018-11-22T12:16:10.864Z,6.60
2018-11-22T12:18:39.512Z,6.70
2018-11-22T12:21:08.164Z,6.70
2018-11-22T12:23:36.801Z,6.80
2018-11-22T12:26:06.104Z,7.00
2018-11-22T12:28:34.740Z,7.40
2018-11-22T12:31:06.549Z,7.50
2018-11-22T12:33:38.440Z,7.60
2018-11-22T12:36:12.532Z,7.80
2018-11-22T12:38:41.467Z,8.10
2018-11-22T12:41:10.144Z,8.30
2018-11-22T12:43:38.791Z,8.40
2018-11-22T12:46:07.438Z,8.40
2018-11-22T12:48:36.109Z,8.40
2018-11-22T12:51:04.802Z,8.60
2018-11-22T12:53:33.447Z,8.60
2018-11-22T12:56:02.133Z,8.50
2018-11-22T12:58:30.791Z,8.50
2018-11-22T13:01:00.009Z,8.30
2018-11-22T13:03:28.712Z,8.10
2018-11-22T13:05:57.511Z,7.90
2018-11-22T13:08:26.163Z,7.90
2018-11-22T13:10:54.810Z,7.70
2018-11-22T13:13:23.440Z,7.70
2018-11-22T13:15:52.074Z,7.60
2018-11-22T13:18:20.769Z,7.50
2018-11-22T13:20:49.396Z,7.40
2018-11-22T13:23:18.022Z,7.40
2018-11-22T13:25:46.701Z,7.50
2018-11-22T13:28:15.340Z,7.60
2018-11-22T13:30:43.944Z,7.60
2018-11-22T13:33:12.643Z,7.60
2018-11-22T13:35:41.285Z,7.70
2018-11-22T13:38:09.927Z,7.70
2018-11-22T13:40:38.534Z,7.90
2018-11-22T13:43:07.216Z,8.20
2018-11-22T13:45:35.862Z,8.20
2018-11-22T13:48:04.509Z,8.10
2018-11-22T13:50:33.844Z,8.10
2018-11-22T13:53:04.804Z,8.00
2018-11-22T13:55:33.492Z,8.10
2018-11-22T13:58:02.168Z,8.10
2018-11-22T14:00:32.078Z,8.00
2018-11-22T14:03:03.198Z,7.90
2018-11-22T14:05:31.836Z,7.70
2018-11-22T14:08:00.685Z,7.60
2018-11-22T14:10:29.391Z,7.50
2018-11-22T14:12:58.029Z,7.40
2018-11-22T14:15:29.205Z,7.30
2018-11-22T14:18:00.696Z,7.20
2018-11-22T14:20:31.802Z,7.10
2018-11-22T14:23:00.418Z,7.00
2018-11-22T14:25:29.268Z,7.00
2018-11-22T14:27:57.939Z,7.00
2018-11-22T14:30:28.224Z,7.00
2018-11-22T14:32:56.880Z,6.90
2018-11-22T14:35:26.233Z,6.80
2018-11-22T14:37:54.897Z,6.80
2018-11-22T14:40:26.024Z,6.70
2018-11-22T14:42:55.244Z,6.60
2018-11-22T14:45:24.631Z,6.40
2018-11-22T14:47:54.568Z,6.30
2018-11-22T14:50:25.901Z,6.20
2018-11-22T14:53:01.235Z,6.20
2018-11-22T14:55:30.161Z,6.10
2018-11-22T14:57:58.796Z,6.00
2018-11-22T15:00:27.489Z,6.00
2018-11-22T15:02:56.123Z,5.90
2018-11-22T15:05:24.808Z,5.90
2018-11-22T15:07:53.649Z,5.80
2018-11-22T15:10:22.613Z,5.70
2018-11-22T15:12:51.663Z,5.60
2018-11-22T15:15:26.092Z,5.40
2018-11-22T15:17:55.656Z,5.30
2018-11-22T15:20:24.778Z,5.30
2018-11-22T15:22:54.815Z,5.20
2018-11-22T15:25:25.973Z,5.10
2018-11-22T15:27:54.711Z,5.00
2018-11-22T15:30:24.916Z,5.10
2018-11-22T15:32:53.613Z,5.10
2018-11-22T15:35:23.540Z,5.00
2018-11-22T15:37:52.737Z,4.90
2018-11-22T15:40:23.492Z,4.80
2018-11-22T15:42:53.473Z,4.70
2018-11-22T15:45:23.531Z,4.70
2018-11-22T15:47:52.210Z,4.60
2018-11-22T15:50:22.235Z,4.50
2018-11-22T15:52:50.856Z,4.40
2018-11-22T15:55:21.035Z,4.30
2018-11-22T15:57:49.729Z,4.40
2018-11-22T16:00:36.368Z,4.60
2018-11-22T16:03:05.186Z,4.60
2018-11-22T16:05:34.182Z,4.60
2018-11-22T16:08:02.809Z,4.50
2018-11-22T16:10:33.123Z,4.40
2018-11-22T16:13:03.944Z,4.40
2018-11-22T16:15:41.651Z,4.30
2018-11-22T16:18:10.267Z,4.40
2018-11-22T16:20:39.033Z,4.40
2018-11-22T16:23:07.647Z,4.40
2018-11-22T16:25:36.384Z,4.30
2018-11-22T16:28:05.571Z,4.30
2018-11-22T16:30:34.687Z,4.30
2018-11-22T16:33:03.373Z,4.30
2018-11-22T16:35:33.394Z,4.30
2018-11-22T16:38:01.542Z,4.20
2018-11-22T16:40:30.753Z,4.10
2018-11-22T16:43:00.805Z,4.00
2018-11-22T16:45:32.531Z,4.00
2018-11-22T16:48:02.824Z,3.90
2018-11-22T16:50:32.562Z,3.80
2018-11-22T16:53:01.248Z,3.60
2018-11-22T16:55:29.889Z,3.50
2018-11-22T16:58:00.085Z,3.50
2018-11-22T17:00:30.200Z,3.50
2018-11-22T17:03:00.640Z,3.50
2018-11-22T17:05:29.427Z,3.50
2018-11-22T17:07:58.265Z,3.40
2018-11-22T17:10:28.299Z,3.40
2018-11-22T17:12:58.234Z,3.50
2018-11-22T17:15:28.388Z,3.40
2018-11-22T17:17:57.985Z,3.40
2018-11-22T17:20:27.569Z,3.40
2018-11-22T17:22:56.212Z,3.30
2018-11-22T17:25:27.211Z,3.30
2018-11-22T17:27:57.437Z,3.30
2018-11-22T17:30:28.564Z,3.20
2018-11-22T17:32:57.189Z,3.10
2018-11-22T17:35:26.760Z,3.10
2018-11-22T17:37:56.793Z,3.10
2018-11-22T17:40:29.796Z,3.10
2018-11-22T17:42:58.444Z,3.00
2018-11-22T17:45:30.216Z,3.00
2018-11-22T17:47:58.929Z,3.00
2018-11-22T17:50:29.396Z,3.00
2018-11-22T17:52:58.100Z,2.90
2018-11-22T17:55:28.254Z,3.00
2018-11-22T17:57:56.892Z,3.00
2018-11-22T18:00:29.533Z,3.10
2018-11-22T18:02:59.388Z,3.00
2018-11-22T18:05:28.157Z,2.90
2018-11-22T18:07:56.755Z,2.90
2018-11-22T18:10:26.927Z,2.90
2018-11-22T18:12:56.290Z,2.80
2018-11-22T18:15:25.763Z,2.80
2018-11-22T18:17:55.200Z,2.80
2018-11-22T18:20:26.197Z,2.90
2018-11-22T18:22:55.917Z,2.80
2018-11-22T18:25:26.091Z,2.80
2018-11-22T18:27:55.055Z,2.70
2018-11-22T18:30:25.625Z,2.80
2018-11-22T18:32:57.675Z,3.10
2018-11-22T18:35:27.292Z,3.20
2018-11-22T18:37:55.940Z,3.20
2018-11-22T18:40:25.895Z,3.40
2018-11-22T18:42:56.432Z,3.40
2018-11-22T18:45:30.368Z,3.60
2018-11-22T18:48:00.246Z,3.70
2018-11-22T18:50:30.787Z,3.90
2018-11-22T18:52:59.665Z,4.10
2018-11-22T18:55:28.478Z,4.10
2018-11-22T18:57:57.164Z,4.20
2018-11-22T19:00:27.875Z,4.20
2018-11-22T19:02:58.887Z,4.30
2018-11-22T19:05:27.711Z,4.30
2018-11-22T19:07:57.220Z,4.30
2018-11-22T19:10:33.056Z,4.30
2018-11-22T19:13:03.997Z,4.30
2018-11-22T19:15:34.159Z,4.20
2018-11-22T19:18:02.917Z,4.20
2018-11-22T19:20:33.850Z,4.20
2018-11-22T19:23:03.711Z,4.20
2018-11-22T19:25:32.441Z,4.30
2018-11-22T19:28:02.140Z,4.30
2018-11-22T19:30:37.017Z,4.40
2018-11-22T19:33:02.640Z,4.40
2018-11-22T19:35:32.832Z,4.40
2018-11-22T19:38:04.646Z,4.50
2018-11-22T19:40:36.439Z,4.50
2018-11-22T19:43:06.599Z,4.40
2018-11-22T19:45:42.572Z,4.40
2018-11-22T19:48:13.081Z,4.30
2018-11-22T19:50:47.068Z,4.20
2018-11-22T19:53:17.670Z,4.10
2018-11-22T19:55:46.348Z,4.10
2018-11-22T19:58:18.173Z,4.00
2018-11-22T20:00:46.872Z,3.90
2018-11-22T20:03:15.530Z,3.80
2018-11-22T20:05:44.491Z,3.80
2018-11-22T20:08:16.368Z,3.90
2018-11-22T20:10:45.703Z,3.90
2018-11-22T20:13:14.336Z,4.00
2018-11-22T20:15:43.192Z,4.00
2018-11-22T20:18:12.542Z,4.00
2018-11-22T20:20:41.312Z,4.00
2018-11-22T20:23:10.320Z,3.90
2018-11-22T20:25:39.176Z,3.90
2018-11-22T20:28:07.828Z,3.90
2018-11-22T20:30:40.365Z,3.90
2018-11-22T20:33:09.134Z,3.90
2018-11-22T20:35:40.479Z,3.70
2018-11-22T20:38:09.410Z,3.70
2018-11-22T20:40:39.141Z,3.60
2018-11-22T20:43:07.787Z,3.50
2018-11-22T20:45:41.129Z,3.40
2018-11-22T20:48:07.664Z,3.30
2018-11-22T20:50:36.628Z,3.30
2018-11-22T20:53:05.511Z,3.30
2018-11-22T20:55:36.569Z,3.30
2018-11-22T20:58:06.111Z,3.30
2018-11-22T21:00:36.583Z,3.10
2018-11-22T21:03:05.865Z,2.90
2018-11-22T21:05:35.094Z,2.80
2018-11-22T21:08:03.360Z,2.70
2018-11-22T21:10:32.878Z,2.70
2018-11-22T21:13:01.531Z,2.60
2018-11-22T21:15:31.722Z,2.60
2018-11-22T21:18:02.203Z,2.70
2018-11-22T21:20:32.335Z,2.60
2018-11-22T21:23:00.982Z,2.50
2018-11-22T21:25:29.586Z,2.40
2018-11-22T21:27:58.250Z,2.20
2018-11-22T21:30:32.100Z,2.20
2018-11-22T21:33:01.222Z,2.30
2018-11-22T21:35:33.190Z,2.30
2018-11-22T21:38:02.552Z,2.30
2018-11-22T21:40:31.788Z,2.30
2018-11-22T21:43:00.709Z,2.40
2018-11-22T21:45:30.201Z,2.40
2018-11-22T21:47:58.833Z,2.30
2018-11-22T21:50:28.386Z,2.30
2018-11-22T21:52:57.111Z,2.20
2018-11-22T21:55:27.324Z,2.10
2018-11-22T21:57:57.360Z,2.00
2018-11-22T22:00:33.375Z,1.80
2018-11-22T22:03:03.657Z,1.60
2018-11-22T22:05:32.327Z,1.50
2018-11-22T22:08:00.935Z,1.40
2018-11-22T22:10:29.596Z,1.30
2018-11-22T22:12:58.281Z,1.30
2018-11-22T22:15:28.341Z,1.30
2018-11-22T22:17:57.034Z,1.40
2018-11-22T22:20:27.193Z,1.50
2018-11-22T22:22:55.892Z,1.60
2018-11-22T22:25:25.620Z,1.60
2018-11-22T22:27:54.628Z,1.70
2018-11-22T22:30:24.600Z,1.70
2018-11-22T22:32:54.464Z,1.60
2018-11-22T22:35:23.090Z,1.70
2018-11-22T22:37:51.795Z,1.70
2018-11-22T22:40:22.049Z,1.80
2018-11-22T22:42:51.735Z,1.70
2018-11-22T22:45:21.363Z,1.70
2018-11-22T22:47:50.607Z,1.70
2018-11-22T22:50:20.785Z,1.70
2018-11-22T22:52:52.368Z,1.70
2018-11-22T22:55:21.165Z,1.50
2018-11-22T22:57:49.865Z,1.40
2018-11-22T23:00:24.905Z,1.30
2018-11-22T23:02:55.007Z,1.20
2018-11-22T23:05:24.434Z,1.20
2018-11-22T23:07:53.168Z,1.20
2018-11-22T23:10:22.575Z,1.10
2018-11-22T23:12:51.313Z,1.20
2018-11-22T23:15:20.580Z,1.10
2018-11-22T23:17:49.276Z,1.10
2018-11-22T23:20:20.186Z,1.10
2018-11-22T23:22:49.447Z,1.20
2018-11-22T23:25:19.200Z,1.10
2018-11-22T23:27:47.868Z,1.10
2018-11-22T23:30:21.964Z,1.00
2018-11-22T23:32:51.876Z,1.00
2018-11-22T23:35:20.827Z,0.90
2018-11-22T23:37:49.839Z,1.00
2018-11-22T23:40:21.672Z,1.00
2018-11-22T23:42:50.311Z,0.90
2018-11-22T23:45:20.232Z,0.90
2018-11-22T23:47:49.368Z,0.80
2018-11-22T23:50:19.524Z,0.80
2018-11-22T23:52:49.409Z,0.90
2018-11-22T23:55:18.088Z,0.80
2018-11-22T23:57:46.771Z,0.90
